Terminal Aerodrome Forecast
Issued by NWS Riverton, WY

Home | Current Version | Previous Version | Text Only | Print | Product List | Glossary On
Versions: 1 2 3 4 5 6 7 8 9 10 11 12 13 14 15 16 17 18 19 20 21 22
000
FTUS45 KRIW 242325
TAFRIW
TAF
KRIW 242325Z 2500/2524 24006KT 6SM -SN SCT015 BKN025 OVC050
      TEMPO 2500/2502 2SM -SN BR BKN015
     FM250200 23005KT P6SM -SN BKN025 OVC050
     FM250800 VRB04KT P6SM VCFG FEW005 SCT050 BKN120
     FM251700 VRB05KT P6SM FEW050 FEW120=

USA.gov is the U.S. government's official web portal to all federal, state and local government web resources and services.